sensor_id;sensor_type;location;lat;lon;timestamp;P1;durP1;ratioP1;P2;durP2;ratioP2
76814;SDS011;65768;49.906;19.384;2023-08-17T00:00:33;8.00;;;6.10;;
76814;SDS011;65768;49.906;19.384;2023-08-17T00:03:34;7.00;;;5.90;;
76814;SDS011;65768;49.906;19.384;2023-08-17T00:06:01;7.10;;;5.40;;
76814;SDS011;65768;49.906;19.384;2023-08-17T00:08:29;7.80;;;5.40;;
76814;SDS011;65768;49.906;19.384;2023-08-17T00:10:57;8.10;;;5.50;;
76814;SDS011;65768;49.906;19.384;2023-08-17T00:13:25;9.20;;;6.20;;
76814;SDS011;65768;49.906;19.384;2023-08-17T00:15:52;9.80;;;6.30;;
76814;SDS011;65768;49.906;19.384;2023-08-17T00:18:23;8.00;;;6.60;;
76814;SDS011;65768;49.906;19.384;2023-08-17T00:20:51;8.40;;;6.50;;
76814;SDS011;65768;49.906;19.384;2023-08-17T00:23:19;9.80;;;6.60;;
76814;SDS011;65768;49.906;19.384;2023-08-17T00:25:48;10.40;;;6.50;;
76814;SDS011;65768;49.906;19.384;2023-08-17T00:28:16;11.00;;;7.10;;
76814;SDS011;65768;49.906;19.384;2023-08-17T00:30:44;9.70;;;7.00;;
76814;SDS011;65768;49.906;19.384;2023-08-17T00:33:12;8.90;;;6.60;;
76814;SDS011;65768;49.906;19.384;2023-08-17T00:35:40;10.80;;;6.20;;
76814;SDS011;65768;49.906;19.384;2023-08-17T00:38:08;9.10;;;6.60;;
76814;SDS011;65768;49.906;19.384;2023-08-17T00:40:36;11.70;;;7.10;;
76814;SDS011;65768;49.906;19.384;2023-08-17T00:43:04;9.40;;;6.30;;
76814;SDS011;65768;49.906;19.384;2023-08-17T00:45:32;9.40;;;6.20;;
76814;SDS011;65768;49.906;19.384;2023-08-17T00:48:00;8.90;;;7.00;;
76814;SDS011;65768;49.906;19.384;2023-08-17T00:50:29;12.20;;;6.90;;
76814;SDS011;65768;49.906;19.384;2023-08-17T00:52:57;10.90;;;6.80;;
76814;SDS011;65768;49.906;19.384;2023-08-17T00:55:26;11.20;;;7.10;;
76814;SDS011;65768;49.906;19.384;2023-08-17T00:57:55;9.90;;;6.70;;
76814;SDS011;65768;49.906;19.384;2023-08-17T01:00:24;9.60;;;7.00;;
76814;SDS011;65768;49.906;19.384;2023-08-17T01:02:55;10.50;;;7.30;;
76814;SDS011;65768;49.906;19.384;2023-08-17T01:05:23;10.50;;;7.30;;
76814;SDS011;65768;49.906;19.384;2023-08-17T01:07:51;10.20;;;7.60;;
76814;SDS011;65768;49.906;19.384;2023-08-17T01:10:19;10.10;;;7.40;;
76814;SDS011;65768;49.906;19.384;2023-08-17T01:12:56;13.70;;;8.40;;
76814;SDS011;65768;49.906;19.384;2023-08-17T01:15:50;11.80;;;8.40;;
76814;SDS011;65768;49.906;19.384;2023-08-17T01:18:26;10.10;;;7.80;;
76814;SDS011;65768;49.906;19.384;2023-08-17T01:20:58;10.30;;;7.50;;
76814;SDS011;65768;49.906;19.384;2023-08-17T01:23:28;13.90;;;7.50;;
76814;SDS011;65768;49.906;19.384;2023-08-17T01:25:56;10.30;;;7.90;;
76814;SDS011;65768;49.906;19.384;2023-08-17T01:28:25;10.90;;;8.10;;
76814;SDS011;65768;49.906;19.384;2023-08-17T01:31:08;11.30;;;8.10;;
76814;SDS011;65768;49.906;19.384;2023-08-17T01:33:47;11.50;;;7.80;;
76814;SDS011;65768;49.906;19.384;2023-08-17T01:36:20;11.30;;;8.80;;
76814;SDS011;65768;49.906;19.384;2023-08-17T01:38:53;14.10;;;8.60;;
76814;SDS011;65768;49.906;19.384;2023-08-17T01:41:23;10.50;;;7.20;;
76814;SDS011;65768;49.906;19.384;2023-08-17T01:43:53;9.30;;;7.10;;
76814;SDS011;65768;49.906;19.384;2023-08-17T01:46:22;8.80;;;7.00;;
76814;SDS011;65768;49.906;19.384;2023-08-17T01:48:55;12.20;;;7.40;;
76814;SDS011;65768;49.906;19.384;2023-08-17T01:51:24;10.40;;;7.20;;
76814;SDS011;65768;49.906;19.384;2023-08-17T01:53:52;9.80;;;7.30;;
76814;SDS011;65768;49.906;19.384;2023-08-17T01:56:20;11.90;;;6.80;;
76814;SDS011;65768;49.906;19.384;2023-08-17T01:58:48;10.30;;;6.30;;
76814;SDS011;65768;49.906;19.384;2023-08-17T02:01:16;9.50;;;7.00;;
76814;SDS011;65768;49.906;19.384;2023-08-17T02:03:44;8.70;;;6.30;;
76814;SDS011;65768;49.906;19.384;2023-08-17T02:06:11;10.40;;;6.60;;
76814;SDS011;65768;49.906;19.384;2023-08-17T02:08:40;10.00;;;7.00;;
76814;SDS011;65768;49.906;19.384;2023-08-17T02:11:08;11.30;;;6.80;;
76814;SDS011;65768;49.906;19.384;2023-08-17T02:13:37;10.90;;;6.80;;
76814;SDS011;65768;49.906;19.384;2023-08-17T02:16:05;14.10;;;7.60;;
76814;SDS011;65768;49.906;19.384;2023-08-17T02:18:33;8.20;;;6.50;;
76814;SDS011;65768;49.906;19.384;2023-08-17T02:21:02;10.10;;;6.20;;
76814;SDS011;65768;49.906;19.384;2023-08-17T02:23:30;10.50;;;6.80;;
76814;SDS011;65768;49.906;19.384;2023-08-17T02:25:57;12.60;;;8.20;;
76814;SDS011;65768;49.906;19.384;2023-08-17T02:28:25;11.50;;;7.90;;
76814;SDS011;65768;49.906;19.384;2023-08-17T02:30:54;14.70;;;9.00;;
76814;SDS011;65768;49.906;19.384;2023-08-17T02:33:23;14.20;;;8.80;;
76814;SDS011;65768;49.906;19.384;2023-08-17T02:35:52;10.30;;;7.50;;
76814;SDS011;65768;49.906;19.384;2023-08-17T02:38:19;12.20;;;8.10;;
76814;SDS011;65768;49.906;19.384;2023-08-17T02:40:48;10.80;;;8.30;;
76814;SDS011;65768;49.906;19.384;2023-08-17T02:43:17;12.40;;;7.80;;
76814;SDS011;65768;49.906;19.384;2023-08-17T02:45:45;11.00;;;8.50;;
76814;SDS011;65768;49.906;19.384;2023-08-17T02:48:12;11.30;;;8.50;;
76814;SDS011;65768;49.906;19.384;2023-08-17T02:50:40;10.10;;;8.50;;
76814;SDS011;65768;49.906;19.384;2023-08-17T02:53:08;10.60;;;7.40;;
76814;SDS011;65768;49.906;19.384;2023-08-17T02:55:36;11.10;;;7.20;;
76814;SDS011;65768;49.906;19.384;2023-08-17T02:58:04;9.40;;;6.60;;
76814;SDS011;65768;49.906;19.384;2023-08-17T03:00:31;10.40;;;7.60;;
76814;SDS011;65768;49.906;19.384;2023-08-17T03:02:59;10.10;;;7.30;;
76814;SDS011;65768;49.906;19.384;2023-08-17T03:05:27;9.30;;;7.50;;
76814;SDS011;65768;49.906;19.384;2023-08-17T03:07:55;10.60;;;7.50;;
76814;SDS011;65768;49.906;19.384;2023-08-17T03:10:23;11.60;;;7.20;;
76814;SDS011;65768;49.906;19.384;2023-08-17T03:12:52;9.40;;;6.80;;
76814;SDS011;65768;49.906;19.384;2023-08-17T03:15:20;12.20;;;7.30;;
76814;SDS011;65768;49.906;19.384;2023-08-17T03:17:48;11.30;;;7.30;;
76814;SDS011;65768;49.906;19.384;2023-08-17T03:20:16;9.20;;;7.20;;
76814;SDS011;65768;49.906;19.384;2023-08-17T03:22:43;13.30;;;8.20;;
76814;SDS011;65768;49.906;19.384;2023-08-17T03:25:11;11.60;;;7.80;;
76814;SDS011;65768;49.906;19.384;2023-08-17T03:27:39;10.20;;;7.10;;
76814;SDS011;65768;49.906;19.384;2023-08-17T03:30:07;12.30;;;7.90;;
76814;SDS011;65768;49.906;19.384;2023-08-17T03:32:35;9.00;;;6.90;;
76814;SDS011;65768;49.906;19.384;2023-08-17T03:35:03;9.40;;;6.50;;
76814;SDS011;65768;49.906;19.384;2023-08-17T03:37:31;9.10;;;6.30;;
76814;SDS011;65768;49.906;19.384;2023-08-17T03:39:59;9.40;;;6.70;;
76814;SDS011;65768;49.906;19.384;2023-08-17T03:42:28;9.50;;;7.10;;
76814;SDS011;65768;49.906;19.384;2023-08-17T03:44:56;7.70;;;5.90;;
76814;SDS011;65768;49.906;19.384;2023-08-17T03:47:23;7.30;;;5.70;;
76814;SDS011;65768;49.906;19.384;2023-08-17T03:49:51;7.00;;;5.80;;
76814;SDS011;65768;49.906;19.384;2023-08-17T03:52:19;6.80;;;5.80;;
76814;SDS011;65768;49.906;19.384;2023-08-17T03:54:47;8.20;;;7.00;;
76814;SDS011;65768;49.906;19.384;2023-08-17T03:57:15;8.40;;;5.90;;
76814;SDS011;65768;49.906;19.384;2023-08-17T03:59:43;9.00;;;6.30;;
76814;SDS011;65768;49.906;19.384;2023-08-17T04:02:10;8.50;;;6.00;;
76814;SDS011;65768;49.906;19.384;2023-08-17T04:04:38;6.30;;;5.20;;
76814;SDS011;65768;49.906;19.384;2023-08-17T04:07:06;7.80;;;5.90;;
76814;SDS011;65768;49.906;19.384;2023-08-17T04:09:34;9.10;;;5.50;;
76814;SDS011;65768;49.906;19.384;2023-08-17T04:12:02;8.50;;;6.00;;
76814;SDS011;65768;49.906;19.384;2023-08-17T04:14:32;7.70;;;6.20;;
76814;SDS011;65768;49.906;19.384;2023-08-17T04:17:00;9.40;;;6.90;;
76814;SDS011;65768;49.906;19.384;2023-08-17T04:19:28;7.60;;;6.00;;
76814;SDS011;65768;49.906;19.384;2023-08-17T04:21:55;9.20;;;6.70;;
76814;SDS011;65768;49.906;19.384;2023-08-17T04:24:23;9.40;;;6.70;;
76814;SDS011;65768;49.906;19.384;2023-08-17T04:26:51;10.30;;;6.40;;
76814;SDS011;65768;49.906;19.384;2023-08-17T04:29:19;8.70;;;6.40;;
76814;SDS011;65768;49.906;19.384;2023-08-17T04:31:47;8.90;;;6.50;;
76814;SDS011;65768;49.906;19.384;2023-08-17T04:34:15;8.90;;;6.80;;
76814;SDS011;65768;49.906;19.384;2023-08-17T04:36:43;10.80;;;7.40;;
76814;SDS011;65768;49.906;19.384;2023-08-17T04:39:11;9.20;;;7.00;;
76814;SDS011;65768;49.906;19.384;2023-08-17T04:41:39;9.60;;;7.80;;
76814;SDS011;65768;49.906;19.384;2023-08-17T04:44:07;9.50;;;6.40;;
76814;SDS011;65768;49.906;19.384;2023-08-17T04:46:35;10.30;;;7.20;;
76814;SDS011;65768;49.906;19.384;2023-08-17T04:49:03;10.30;;;7.00;;
76814;SDS011;65768;49.906;19.384;2023-08-17T04:51:31;10.30;;;6.90;;
76814;SDS011;65768;49.906;19.384;2023-08-17T04:53:59;13.50;;;7.40;;
76814;SDS011;65768;49.906;19.384;2023-08-17T04:56:27;14.20;;;8.30;;
76814;SDS011;65768;49.906;19.384;2023-08-17T04:58:55;14.30;;;9.50;;
76814;SDS011;65768;49.906;19.384;2023-08-17T05:01:23;12.10;;;6.90;;
76814;SDS011;65768;49.906;19.384;2023-08-17T05:03:51;11.40;;;7.90;;
76814;SDS011;65768;49.906;19.384;2023-08-17T05:06:19;10.30;;;7.70;;
76814;SDS011;65768;49.906;19.384;2023-08-17T05:08:47;13.00;;;8.60;;
76814;SDS011;65768;49.906;19.384;2023-08-17T05:11:14;11.00;;;8.60;;
76814;SDS011;65768;49.906;19.384;2023-08-17T05:13:42;10.90;;;8.20;;
76814;SDS011;65768;49.906;19.384;2023-08-17T05:16:10;10.80;;;8.20;;
76814;SDS011;65768;49.906;19.384;2023-08-17T05:18:38;12.50;;;8.70;;
76814;SDS011;65768;49.906;19.384;2023-08-17T05:21:06;12.90;;;8.70;;
76814;SDS011;65768;49.906;19.384;2023-08-17T05:23:34;11.30;;;8.40;;
76814;SDS011;65768;49.906;19.384;2023-08-17T05:26:01;14.10;;;9.80;;
76814;SDS011;65768;49.906;19.384;2023-08-17T05:28:29;13.70;;;9.50;;
76814;SDS011;65768;49.906;19.384;2023-08-17T05:31:02;12.50;;;9.80;;
76814;SDS011;65768;49.906;19.384;2023-08-17T05:33:32;18.20;;;11.00;;
76814;SDS011;65768;49.906;19.384;2023-08-17T05:36:00;15.40;;;10.10;;
76814;SDS011;65768;49.906;19.384;2023-08-17T05:38:28;15.00;;;10.50;;
76814;SDS011;65768;49.906;19.384;2023-08-17T05:40:56;15.70;;;9.60;;
76814;SDS011;65768;49.906;19.384;2023-08-17T05:43:25;13.70;;;10.60;;
76814;SDS011;65768;49.906;19.384;2023-08-17T05:45:53;13.40;;;10.10;;
76814;SDS011;65768;49.906;19.384;2023-08-17T05:48:21;15.40;;;11.00;;
76814;SDS011;65768;49.906;19.384;2023-08-17T05:50:49;15.50;;;11.10;;
76814;SDS011;65768;49.906;19.384;2023-08-17T05:53:17;17.10;;;10.80;;
76814;SDS011;65768;49.906;19.384;2023-08-17T05:55:45;17.50;;;11.10;;
76814;SDS011;65768;49.906;19.384;2023-08-17T05:58:13;16.10;;;10.70;;
76814;SDS011;65768;49.906;19.384;2023-08-17T06:00:41;15.80;;;10.70;;
76814;SDS011;65768;49.906;19.384;2023-08-17T06:03:09;16.00;;;10.00;;
76814;SDS011;65768;49.906;19.384;2023-08-17T06:05:39;12.60;;;9.90;;
76814;SDS011;65768;49.906;19.384;2023-08-17T06:08:07;11.70;;;10.10;;
76814;SDS011;65768;49.906;19.384;2023-08-17T06:10:35;13.80;;;10.10;;
76814;SDS011;65768;49.906;19.384;2023-08-17T06:13:03;14.60;;;10.50;;
76814;SDS011;65768;49.906;19.384;2023-08-17T06:15:31;15.20;;;11.40;;
76814;SDS011;65768;49.906;19.384;2023-08-17T06:17:59;14.20;;;11.20;;
76814;SDS011;65768;49.906;19.384;2023-08-17T06:20:27;17.70;;;10.00;;
76814;SDS011;65768;49.906;19.384;2023-08-17T06:22:55;13.00;;;10.00;;
76814;SDS011;65768;49.906;19.384;2023-08-17T06:25:23;14.80;;;10.40;;
76814;SDS011;65768;49.906;19.384;2023-08-17T06:27:50;13.10;;;11.10;;
76814;SDS011;65768;49.906;19.384;2023-08-17T06:30:18;16.20;;;9.60;;
76814;SDS011;65768;49.906;19.384;2023-08-17T06:32:46;13.00;;;9.10;;
76814;SDS011;65768;49.906;19.384;2023-08-17T06:35:14;12.30;;;9.90;;
76814;SDS011;65768;49.906;19.384;2023-08-17T06:37:42;10.10;;;9.00;;
76814;SDS011;65768;49.906;19.384;2023-08-17T06:40:10;11.80;;;8.70;;
76814;SDS011;65768;49.906;19.384;2023-08-17T06:42:38;15.90;;;8.50;;
76814;SDS011;65768;49.906;19.384;2023-08-17T06:45:07;12.10;;;8.20;;
76814;SDS011;65768;49.906;19.384;2023-08-17T06:47:35;11.40;;;8.30;;
76814;SDS011;65768;49.906;19.384;2023-08-17T06:50:03;12.20;;;8.40;;
76814;SDS011;65768;49.906;19.384;2023-08-17T06:52:31;11.10;;;8.00;;
76814;SDS011;65768;49.906;19.384;2023-08-17T06:55:01;10.80;;;8.00;;
76814;SDS011;65768;49.906;19.384;2023-08-17T06:57:29;13.10;;;8.60;;
76814;SDS011;65768;49.906;19.384;2023-08-17T06:59:57;13.50;;;8.60;;
76814;SDS011;65768;49.906;19.384;2023-08-17T07:02:25;10.30;;;8.10;;
76814;SDS011;65768;49.906;19.384;2023-08-17T07:04:55;12.10;;;8.00;;
76814;SDS011;65768;49.906;19.384;2023-08-17T07:07:23;15.20;;;8.50;;
76814;SDS011;65768;49.906;19.384;2023-08-17T07:09:52;10.70;;;8.40;;
76814;SDS011;65768;49.906;19.384;2023-08-17T07:12:24;12.50;;;9.40;;
76814;SDS011;65768;49.906;19.384;2023-08-17T07:14:53;13.40;;;9.30;;
76814;SDS011;65768;49.906;19.384;2023-08-17T07:17:21;15.40;;;9.10;;
76814;SDS011;65768;49.906;19.384;2023-08-17T07:19:49;13.10;;;9.20;;
76814;SDS011;65768;49.906;19.384;2023-08-17T07:22:17;13.60;;;9.00;;
76814;SDS011;65768;49.906;19.384;2023-08-17T07:24:45;9.80;;;8.00;;
76814;SDS011;65768;49.906;19.384;2023-08-17T07:27:12;11.70;;;8.00;;
76814;SDS011;65768;49.906;19.384;2023-08-17T07:29:41;13.20;;;8.50;;
76814;SDS011;65768;49.906;19.384;2023-08-17T07:32:09;10.50;;;8.80;;
76814;SDS011;65768;49.906;19.384;2023-08-17T07:34:37;13.30;;;8.70;;
76814;SDS011;65768;49.906;19.384;2023-08-17T07:37:04;8.80;;;7.20;;
76814;SDS011;65768;49.906;19.384;2023-08-17T07:39:33;10.10;;;8.00;;
76814;SDS011;65768;49.906;19.384;2023-08-17T07:42:01;11.50;;;8.70;;
76814;SDS011;65768;49.906;19.384;2023-08-17T07:44:29;12.70;;;8.90;;
76814;SDS011;65768;49.906;19.384;2023-08-17T07:46:59;12.10;;;9.90;;
76814;SDS011;65768;49.906;19.384;2023-08-17T07:49:28;14.70;;;9.40;;
76814;SDS011;65768;49.906;19.384;2023-08-17T07:51:56;11.40;;;9.00;;
76814;SDS011;65768;49.906;19.384;2023-08-17T07:54:24;10.20;;;8.20;;
76814;SDS011;65768;49.906;19.384;2023-08-17T07:56:52;8.80;;;7.10;;
76814;SDS011;65768;49.906;19.384;2023-08-17T07:59:19;9.60;;;7.40;;
76814;SDS011;65768;49.906;19.384;2023-08-17T08:01:47;9.70;;;7.90;;
76814;SDS011;65768;49.906;19.384;2023-08-17T08:04:15;9.10;;;6.70;;
76814;SDS011;65768;49.906;19.384;2023-08-17T08:06:43;12.20;;;7.20;;
76814;SDS011;65768;49.906;19.384;2023-08-17T08:09:12;11.80;;;8.00;;
76814;SDS011;65768;49.906;19.384;2023-08-17T08:11:40;10.60;;;7.20;;
76814;SDS011;65768;49.906;19.384;2023-08-17T08:14:08;12.20;;;8.40;;
76814;SDS011;65768;49.906;19.384;2023-08-17T08:16:35;9.90;;;7.00;;
76814;SDS011;65768;49.906;19.384;2023-08-17T08:19:04;11.10;;;7.90;;
76814;SDS011;65768;49.906;19.384;2023-08-17T08:21:31;29.30;;;10.10;;
76814;SDS011;65768;49.906;19.384;2023-08-17T08:23:59;13.60;;;9.10;;
76814;SDS011;65768;49.906;19.384;2023-08-17T08:26:27;10.50;;;7.40;;
76814;SDS011;65768;49.906;19.384;2023-08-17T08:28:55;10.10;;;7.40;;
76814;SDS011;65768;49.906;19.384;2023-08-17T08:31:23;12.50;;;7.30;;
76814;SDS011;65768;49.906;19.384;2023-08-17T08:33:51;11.90;;;8.50;;
76814;SDS011;65768;49.906;19.384;2023-08-17T08:36:20;12.00;;;8.00;;
76814;SDS011;65768;49.906;19.384;2023-08-17T08:38:48;14.20;;;8.10;;
76814;SDS011;65768;49.906;19.384;2023-08-17T08:41:16;8.30;;;7.10;;
76814;SDS011;65768;49.906;19.384;2023-08-17T08:43:44;10.90;;;7.30;;
76814;SDS011;65768;49.906;19.384;2023-08-17T08:46:13;12.20;;;7.70;;
76814;SDS011;65768;49.906;19.384;2023-08-17T08:48:44;9.10;;;6.20;;
76814;SDS011;65768;49.906;19.384;2023-08-17T08:51:15;8.80;;;6.30;;
76814;SDS011;65768;49.906;19.384;2023-08-17T08:53:47;8.40;;;6.40;;
76814;SDS011;65768;49.906;19.384;2023-08-17T08:56:23;8.30;;;6.00;;
76814;SDS011;65768;49.906;19.384;2023-08-17T08:58:52;7.80;;;5.90;;
76814;SDS011;65768;49.906;19.384;2023-08-17T09:01:20;8.40;;;5.50;;
76814;SDS011;65768;49.906;19.384;2023-08-17T09:03:49;6.70;;;5.20;;
76814;SDS011;65768;49.906;19.384;2023-08-17T09:06:18;9.00;;;6.90;;
76814;SDS011;65768;49.906;19.384;2023-08-17T09:08:49;7.10;;;5.60;;
76814;SDS011;65768;49.906;19.384;2023-08-17T09:11:17;8.40;;;6.50;;
76814;SDS011;65768;49.906;19.384;2023-08-17T09:13:45;7.70;;;6.00;;
76814;SDS011;65768;49.906;19.384;2023-08-17T09:16:13;7.90;;;5.60;;
76814;SDS011;65768;49.906;19.384;2023-08-17T09:18:41;6.20;;;5.10;;
76814;SDS011;65768;49.906;19.384;2023-08-17T09:21:19;8.30;;;6.60;;
76814;SDS011;65768;49.906;19.384;2023-08-17T09:23:54;5.60;;;5.00;;
76814;SDS011;65768;49.906;19.384;2023-08-17T09:26:22;6.00;;;5.40;;
76814;SDS011;65768;49.906;19.384;2023-08-17T09:28:51;7.20;;;5.50;;
76814;SDS011;65768;49.906;19.384;2023-08-17T09:31:23;6.90;;;5.70;;
76814;SDS011;65768;49.906;19.384;2023-08-17T09:33:51;6.30;;;5.60;;
76814;SDS011;65768;49.906;19.384;2023-08-17T09:36:20;5.80;;;5.20;;
76814;SDS011;65768;49.906;19.384;2023-08-17T09:38:52;7.60;;;5.40;;
76814;SDS011;65768;49.906;19.384;2023-08-17T09:41:20;6.70;;;5.80;;
76814;SDS011;65768;49.906;19.384;2023-08-17T09:43:48;6.70;;;4.90;;
76814;SDS011;65768;49.906;19.384;2023-08-17T09:46:17;6.90;;;5.80;;
76814;SDS011;65768;49.906;19.384;2023-08-17T09:48:45;7.60;;;6.10;;
76814;SDS011;65768;49.906;19.384;2023-08-17T09:51:15;8.80;;;5.40;;
76814;SDS011;65768;49.906;19.384;2023-08-17T09:53:44;5.90;;;4.80;;
76814;SDS011;65768;49.906;19.384;2023-08-17T09:56:12;7.60;;;5.60;;
76814;SDS011;65768;49.906;19.384;2023-08-17T09:58:41;6.50;;;5.80;;
76814;SDS011;65768;49.906;19.384;2023-08-17T10:01:08;8.80;;;5.00;;
76814;SDS011;65768;49.906;19.384;2023-08-17T10:03:39;7.40;;;5.70;;
76814;SDS011;65768;49.906;19.384;2023-08-17T10:06:12;8.50;;;5.90;;
76814;SDS011;65768;49.906;19.384;2023-08-17T10:08:47;8.20;;;5.80;;
76814;SDS011;65768;49.906;19.384;2023-08-17T10:11:18;8.30;;;6.90;;
76814;SDS011;65768;49.906;19.384;2023-08-17T10:16:53;8.40;;;6.40;;
76814;SDS011;65768;49.906;19.384;2023-08-17T10:19:43;10.90;;;6.50;;
76814;SDS011;65768;49.906;19.384;2023-08-17T10:22:21;9.50;;;7.00;;
76814;SDS011;65768;49.906;19.384;2023-08-17T10:25:15;9.60;;;6.60;;
76814;SDS011;65768;49.906;19.384;2023-08-17T10:27:44;10.10;;;6.60;;
76814;SDS011;65768;49.906;19.384;2023-08-17T14:03:44;4.90;;;3.00;;
76814;SDS011;65768;49.906;19.384;2023-08-17T14:06:13;6.10;;;3.40;;
76814;SDS011;65768;49.906;19.384;2023-08-17T14:08:42;6.40;;;3.80;;
76814;SDS011;65768;49.906;19.384;2023-08-17T14:11:10;5.50;;;4.70;;
76814;SDS011;65768;49.906;19.384;2023-08-17T14:13:38;5.30;;;3.70;;
76814;SDS011;65768;49.906;19.384;2023-08-17T14:16:07;7.60;;;4.10;;
76814;SDS011;65768;49.906;19.384;2023-08-17T14:18:35;7.00;;;3.90;;
76814;SDS011;65768;49.906;19.384;2023-08-17T14:21:03;8.00;;;4.70;;
76814;SDS011;65768;49.906;19.384;2023-08-17T14:23:32;5.60;;;3.80;;
76814;SDS011;65768;49.906;19.384;2023-08-17T14:26:00;6.90;;;4.40;;
76814;SDS011;65768;49.906;19.384;2023-08-17T14:28:28;5.60;;;3.20;;
76814;SDS011;65768;49.906;19.384;2023-08-17T14:30:57;8.20;;;4.10;;
76814;SDS011;65768;49.906;19.384;2023-08-17T14:33:25;6.40;;;4.20;;
76814;SDS011;65768;49.906;19.384;2023-08-17T14:35:54;5.20;;;3.70;;
76814;SDS011;65768;49.906;19.384;2023-08-17T14:38:22;8.50;;;5.10;;
76814;SDS011;65768;49.906;19.384;2023-08-17T14:40:51;6.30;;;4.10;;
76814;SDS011;65768;49.906;19.384;2023-08-17T14:43:19;4.60;;;2.80;;
76814;SDS011;65768;49.906;19.384;2023-08-17T14:45:47;4.00;;;2.70;;
76814;SDS011;65768;49.906;19.384;2023-08-17T14:48:16;6.60;;;2.80;;
76814;SDS011;65768;49.906;19.384;2023-08-17T14:50:44;4.70;;;3.00;;
76814;SDS011;65768;49.906;19.384;2023-08-17T14:53:12;4.70;;;2.70;;
76814;SDS011;65768;49.906;19.384;2023-08-17T14:55:41;4.60;;;2.70;;
76814;SDS011;65768;49.906;19.384;2023-08-17T14:58:09;5.30;;;2.40;;
76814;SDS011;65768;49.906;19.384;2023-08-17T15:00:37;3.50;;;2.30;;
76814;SDS011;65768;49.906;19.384;2023-08-17T15:03:06;3.90;;;2.90;;
76814;SDS011;65768;49.906;19.384;2023-08-17T15:05:35;5.20;;;2.70;;
76814;SDS011;65768;49.906;19.384;2023-08-17T15:08:04;4.70;;;2.50;;
76814;SDS011;65768;49.906;19.384;2023-08-17T15:10:33;3.90;;;2.80;;
76814;SDS011;65768;49.906;19.384;2023-08-17T15:13:02;4.10;;;3.10;;
76814;SDS011;65768;49.906;19.384;2023-08-17T15:15:30;3.70;;;2.50;;
76814;SDS011;65768;49.906;19.384;2023-08-17T15:17:58;3.90;;;2.50;;
76814;SDS011;65768;49.906;19.384;2023-08-17T15:20:27;4.20;;;2.70;;
76814;SDS011;65768;49.906;19.384;2023-08-17T15:22:58;5.60;;;3.20;;
76814;SDS011;65768;49.906;19.384;2023-08-17T15:25:27;5.30;;;3.30;;
76814;SDS011;65768;49.906;19.384;2023-08-17T15:27:56;5.10;;;3.50;;
76814;SDS011;65768;49.906;19.384;2023-08-17T15:30:24;5.20;;;3.50;;
76814;SDS011;65768;49.906;19.384;2023-08-17T15:32:52;4.50;;;2.80;;
76814;SDS011;65768;49.906;19.384;2023-08-17T15:35:20;5.20;;;3.30;;
76814;SDS011;65768;49.906;19.384;2023-08-17T15:37:49;4.20;;;2.70;;
76814;SDS011;65768;49.906;19.384;2023-08-17T15:40:17;6.50;;;3.30;;
76814;SDS011;65768;49.906;19.384;2023-08-17T15:42:46;5.30;;;3.20;;
76814;SDS011;65768;49.906;19.384;2023-08-17T15:45:15;5.10;;;2.80;;
76814;SDS011;65768;49.906;19.384;2023-08-17T15:47:46;5.00;;;2.80;;
76814;SDS011;65768;49.906;19.384;2023-08-17T15:50:15;4.90;;;3.20;;
76814;SDS011;65768;49.906;19.384;2023-08-17T15:52:43;5.70;;;3.80;;
76814;SDS011;65768;49.906;19.384;2023-08-17T15:55:12;4.80;;;3.50;;
76814;SDS011;65768;49.906;19.384;2023-08-17T15:57:41;6.30;;;3.20;;
76814;SDS011;65768;49.906;19.384;2023-08-17T16:00:09;3.50;;;2.90;;
76814;SDS011;65768;49.906;19.384;2023-08-17T16:02:38;5.80;;;3.50;;
76814;SDS011;65768;49.906;19.384;2023-08-17T16:05:07;5.30;;;3.30;;
76814;SDS011;65768;49.906;19.384;2023-08-17T16:07:36;4.80;;;3.30;;
76814;SDS011;65768;49.906;19.384;2023-08-17T16:10:05;5.60;;;3.20;;
76814;SDS011;65768;49.906;19.384;2023-08-17T16:12:33;4.30;;;3.10;;
76814;SDS011;65768;49.906;19.384;2023-08-17T16:15:02;4.90;;;3.20;;
76814;SDS011;65768;49.906;19.384;2023-08-17T16:17:31;5.70;;;3.40;;
76814;SDS011;65768;49.906;19.384;2023-08-17T16:20:03;5.10;;;3.40;;
76814;SDS011;65768;49.906;19.384;2023-08-17T16:22:31;4.70;;;3.00;;
76814;SDS011;65768;49.906;19.384;2023-08-17T16:25:02;4.90;;;3.20;;
76814;SDS011;65768;49.906;19.384;2023-08-17T16:27:30;5.10;;;3.70;;
76814;SDS011;65768;49.906;19.384;2023-08-17T16:29:58;3.90;;;2.40;;
76814;SDS011;65768;49.906;19.384;2023-08-17T16:32:28;6.50;;;3.00;;
76814;SDS011;65768;49.906;19.384;2023-08-17T16:34:58;4.50;;;2.40;;
76814;SDS011;65768;49.906;19.384;2023-08-17T16:37:26;5.20;;;2.80;;
76814;SDS011;65768;49.906;19.384;2023-08-17T16:39:55;5.80;;;3.10;;
76814;SDS011;65768;49.906;19.384;2023-08-17T16:42:23;4.80;;;2.90;;
76814;SDS011;65768;49.906;19.384;2023-08-17T16:44:51;6.70;;;3.30;;
76814;SDS011;65768;49.906;19.384;2023-08-17T16:47:21;5.20;;;3.00;;
76814;SDS011;65768;49.906;19.384;2023-08-17T16:49:55;5.10;;;2.90;;
76814;SDS011;65768;49.906;19.384;2023-08-17T16:52:23;4.40;;;2.60;;
76814;SDS011;65768;49.906;19.384;2023-08-17T16:54:52;5.40;;;3.40;;
76814;SDS011;65768;49.906;19.384;2023-08-17T16:57:20;7.10;;;3.60;;
76814;SDS011;65768;49.906;19.384;2023-08-17T16:59:49;4.30;;;3.10;;
76814;SDS011;65768;49.906;19.384;2023-08-17T17:02:18;5.20;;;3.00;;
76814;SDS011;65768;49.906;19.384;2023-08-17T17:04:46;5.80;;;3.30;;
76814;SDS011;65768;49.906;19.384;2023-08-17T17:07:15;5.50;;;3.50;;
76814;SDS011;65768;49.906;19.384;2023-08-17T17:09:44;6.80;;;3.40;;
76814;SDS011;65768;49.906;19.384;2023-08-17T17:12:14;6.10;;;4.50;;
76814;SDS011;65768;49.906;19.384;2023-08-17T17:14:42;7.10;;;3.60;;
76814;SDS011;65768;49.906;19.384;2023-08-17T17:17:11;6.70;;;4.40;;
76814;SDS011;65768;49.906;19.384;2023-08-17T17:19:39;9.80;;;4.90;;
76814;SDS011;65768;49.906;19.384;2023-08-17T17:22:07;6.40;;;4.60;;
76814;SDS011;65768;49.906;19.384;2023-08-17T17:24:36;6.90;;;4.50;;
76814;SDS011;65768;49.906;19.384;2023-08-17T17:27:04;5.90;;;4.00;;
76814;SDS011;65768;49.906;19.384;2023-08-17T17:29:33;7.00;;;4.30;;
76814;SDS011;65768;49.906;19.384;2023-08-17T17:32:01;5.90;;;4.30;;
76814;SDS011;65768;49.906;19.384;2023-08-17T17:34:29;6.20;;;5.00;;
76814;SDS011;65768;49.906;19.384;2023-08-17T17:36:59;6.10;;;4.10;;
76814;SDS011;65768;49.906;19.384;2023-08-17T17:39:27;5.80;;;3.80;;
76814;SDS011;65768;49.906;19.384;2023-08-17T17:41:57;6.50;;;3.90;;
76814;SDS011;65768;49.906;19.384;2023-08-17T17:44:26;7.40;;;4.10;;
76814;SDS011;65768;49.906;19.384;2023-08-17T17:46:54;5.90;;;4.10;;
76814;SDS011;65768;49.906;19.384;2023-08-17T17:49:23;5.70;;;3.90;;
76814;SDS011;65768;49.906;19.384;2023-08-17T17:51:51;6.60;;;4.10;;
76814;SDS011;65768;49.906;19.384;2023-08-17T17:54:20;6.40;;;4.00;;
76814;SDS011;65768;49.906;19.384;2023-08-17T17:56:48;6.80;;;4.20;;
76814;SDS011;65768;49.906;19.384;2023-08-17T17:59:17;9.60;;;4.20;;
76814;SDS011;65768;49.906;19.384;2023-08-17T18:01:45;6.90;;;4.40;;
76814;SDS011;65768;49.906;19.384;2023-08-17T18:04:14;6.20;;;4.60;;
76814;SDS011;65768;49.906;19.384;2023-08-17T18:06:42;9.80;;;5.30;;
76814;SDS011;65768;49.906;19.384;2023-08-17T18:09:10;6.00;;;4.20;;
76814;SDS011;65768;49.906;19.384;2023-08-17T18:11:39;4.80;;;4.10;;
76814;SDS011;65768;49.906;19.384;2023-08-17T18:14:07;7.30;;;4.40;;